Roanoke, VA (24001)

6:30 PM EST on February 08, 2016 (GMT -0500)
APRSWXNET | | Change Station
CLOSE
Current Station
Personal Weather Station
Location: Roanoke, VA
Elevation: 941 ft
Nearby Weather Stations

Elev 941 ft 37.27 °N, 79.94 °W | Updated 42 minutes ago

Overcast
Overcast
39 °F
Feels Like 39 °F
N
0
Wind Variable Wind from SE
Gusts 2.0 mph

Today
High -- | Low -- °F
--% Chance of Precip.
Yesterday
High -- | Low -- °F
Precip. -- in
Pressure 29.68 in
Visibility 10.0 miles
Clouds Overcast 11000 ft
Windchill 39 °F
Dew Point 35 °F
Humidity 85%
Rainfall in
Snow Depth Not available.
7:16 AM 5:51 PM
New Moon, 0% visible
METAR KROA 082254Z 00000KT 10SM OVC110 03/01 A2965 RMK AO2 RAE01 SLP048 P0000 T00280011
Pressure 29.68 in
Visibility 10.0 miles
Clouds Overcast 11000 ft
Windchill 39 °F
Dew Point 35 °F
Humidity 85%
Rainfall in
Snow Depth Not available.
7:16 AM 5:51 PM
New Moon, 0% visible
METAR KROA 082254Z 00000KT 10SM OVC110 03/01 A2965 RMK AO2 RAE01 SLP048 P0000 T00280011

10-Day Weather Forecast

Almanac

Astronomy

Feb. 08, 2016 Rise Set
Actual Time
Civil Twilight
Nautical Twilight
Astronomical Twilight
Moon
Length of Visible Light
Length of Day
Tomorrow will be .
, % of the Moon is Illuminated

Today's Extremes

State Highs State Lows

Community

WunderPhotos

Upload Photos

1,891,525 photos uploaded!

WunderBlog® & News

Nearby

Air Quality

  Air Quality AQ Index Pollutant
Not available.

Snow Depth

Station Depth Elevation

Earthquake Activity

City Distance Mag. Time & Date
Minimum magnitude displayed is 2.5.

Coastal Water Temperatures

Place Temperature

Stations

Nearby Weather Stations

Station Location Temp. Windchill Dew Point Humidity Wind Precip. Elev Updated Type
                   

Watches & Warnings

There are currently no watches in effect.